Time;durP1;ratioP1;P1;durP2;ratioP2;P2;SDS_P1;SDS_P2;PMS_P1;PMS_P2;Temp;Humidity;BMP_temperature;BMP_pressure;BME280_temperature;BME280_humidity;BME280_pressure;Samples;Min_cycle;Max_cycle;Signal;HPM_P1;HPM_P2
2021/05/16 00:01:31;;;;;;;;;;;;;;;13.85;89.89;99092.09;2860956;83;20190;-60
2021/05/16 00:05:33;;;;;;;;;;;;;;;13.88;89.84;99086.06;2860689;82;20143;-60
2021/05/16 00:09:34;;;;;;;;;;;;;;;13.93;89.57;99084.53;2861467;83;20210;-60
2021/05/16 00:13:36;;;;;;;;;;;;;;;13.90;89.14;99088.05;2861224;82;20198;-60
2021/05/16 00:17:37;;;;;;;;;;;;;;;13.80;89.72;99089.61;2861592;82;20621;-60
2021/05/16 00:21:39;;;;;;;;;;;;;;;13.81;90.00;99093.45;2861208;82;20207;-60
2021/05/16 00:25:40;;;;;;;;;;;;;;;13.80;90.45;99081.11;2861098;82;20202;-61
2021/05/16 00:29:42;;;;;;;;;;;;;;;13.71;90.54;99076.31;2861368;83;20158;-60
2021/05/16 00:33:43;;;;;;;;;;;;;;;13.66;91.04;99074.68;2861325;83;20190;-60
2021/05/16 00:37:45;;;;;;;;;;;;;;;13.68;91.13;99067.80;2861109;83;20147;-60
2021/05/16 00:41:48;;;;;;;;;;;;;;;13.64;90.62;99066.50;2861297;83;20268;-60
2021/05/16 00:45:49;;;;;;;;;;;;;;;13.57;90.64;99055.67;2868507;83;20174;-60
2021/05/16 00:49:51;;;;;;;;;;;;;;;13.55;90.47;99051.02;2869791;82;20174;-60
2021/05/16 00:53:52;;;;;;;;;;;;;;;13.46;90.42;99047.55;2869853;83;20162;-61
2021/05/16 00:57:53;;;;;;;;;;;;;;;13.48;90.56;99040.20;2869796;82;20170;-60
2021/05/16 01:01:56;;;;;;;;;;;;;;;13.45;90.38;99040.55;2869795;83;20194;-60
2021/05/16 01:05:58;;;;;;;;;;;;;;;13.42;90.19;99035.53;2869635;82;20194;-60
2021/05/16 01:10:00;;;;;;;;;;;;;;;13.42;90.36;99038.20;2869551;83;20190;-61
2021/05/16 01:14:05;;;;;;;;;;;;;;;13.45;90.16;99036.55;2869535;83;20202;-61
2021/05/16 01:18:04;;;;;;;;;;;;;;;13.53;90.05;99036.48;2869354;82;20281;-60
2021/05/16 01:22:07;;;;;;;;;;;;;;;13.65;89.96;99032.91;2869683;82;20214;-60
2021/05/16 01:26:08;;;;;;;;;;;;;;;13.80;89.28;99025.47;2869534;82;20182;-60
2021/05/16 01:30:11;;;;;;;;;;;;;;;13.70;87.81;99016.34;2869713;82;20178;-59
2021/05/16 01:34:12;;;;;;;;;;;;;;;13.49;87.88;99008.98;2867125;82;20209;-60
2021/05/16 01:38:14;;;;;;;;;;;;;;;13.38;88.58;98999.50;2869358;83;20154;-61
2021/05/16 01:42:17;;;;;;;;;;;;;;;13.38;88.59;98988.82;2869083;82;20182;-61
2021/05/16 01:46:18;;;;;;;;;;;;;;;13.34;88.54;98991.48;2869139;83;20487;-61
2021/05/16 01:50:22;;;;;;;;;;;;;;;13.34;88.61;98990.16;2869273;82;20159;-61
2021/05/16 01:54:23;;;;;;;;;;;;;;;13.32;88.42;98993.02;2869084;83;20614;-60
2021/05/16 01:58:25;;;;;;;;;;;;;;;13.31;88.44;98998.03;2869109;82;20146;-61
2021/05/16 02:02:27;;;;;;;;;;;;;;;13.19;88.30;98986.92;2869285;82;20166;-60
2021/05/16 02:06:29;;;;;;;;;;;;;;;12.99;88.55;98995.84;2869056;83;20190;-60
2021/05/16 02:10:31;;;;;;;;;;;;;;;12.76;89.44;99005.09;2869076;82;20174;-60
2021/05/16 02:14:33;;;;;;;;;;;;;;;12.60;90.42;99023.31;2869083;82;20218;-60
2021/05/16 02:18:35;;;;;;;;;;;;;;;12.59;90.75;99037.16;2868766;83;20530;-60
2021/05/16 02:22:36;;;;;;;;;;;;;;;12.56;90.70;99036.14;2869272;83;20194;-60
2021/05/16 02:26:38;;;;;;;;;;;;;;;12.50;91.64;99027.50;2868938;82;20206;-60
2021/05/16 02:30:40;;;;;;;;;;;;;;;12.53;91.36;99023.15;2868999;83;20221;-60
2021/05/16 02:34:41;;;;;;;;;;;;;;;12.46;91.40;99020.84;2869024;82;20169;-60
2021/05/16 02:38:42;;;;;;;;;;;;;;;12.39;91.39;99026.86;2869031;83;20158;-60
2021/05/16 02:42:44;;;;;;;;;;;;;;;12.34;91.78;99024.36;2868849;82;20187;-60
2021/05/16 02:46:46;;;;;;;;;;;;;;;12.33;91.57;99024.03;2861003;83;20178;-60
2021/05/16 02:50:48;;;;;;;;;;;;;;;12.31;91.77;99028.19;2860560;83;20539;-61
2021/05/16 02:54:49;;;;;;;;;;;;;;;12.35;91.91;99028.69;2860432;83;20131;-60
2021/05/16 02:58:50;;;;;;;;;;;;;;;12.38;91.38;99025.20;2860578;82;20503;-60
2021/05/16 03:02:52;;;;;;;;;;;;;;;12.41;90.36;99019.52;2860344;83;20186;-61
2021/05/16 03:06:53;;;;;;;;;;;;;;;12.50;89.79;99025.67;2860419;82;20162;-60
2021/05/16 03:10:55;;;;;;;;;;;;;;;12.50;88.96;99023.50;2860822;82;20502;-60
2021/05/16 03:14:56;;;;;;;;;;;;;;;12.45;88.00;99019.99;2860431;82;20202;-60
2021/05/16 03:18:57;;;;;;;;;;;;;;;12.39;87.90;99018.86;2860485;82;20190;-60
2021/05/16 03:22:59;;;;;;;;;;;;;;;12.36;88.23;99031.17;2860451;83;20158;-61
2021/05/16 03:27:00;;;;;;;;;;;;;;;12.40;87.56;99029.01;2860307;82;20186;-60
2021/05/16 03:31:02;;;;;;;;;;;;;;;12.41;87.02;99031.52;2860350;82;20195;-60
2021/05/16 03:35:04;;;;;;;;;;;;;;;12.49;86.74;99024.50;2860183;83;20182;-60
2021/05/16 03:39:07;;;;;;;;;;;;;;;12.48;86.05;99025.02;2860352;82;20177;-60
2021/05/16 03:43:09;;;;;;;;;;;;;;;12.41;85.43;99023.52;2860675;82;20198;-61
2021/05/16 03:47:10;;;;;;;;;;;;;;;12.35;85.67;99026.02;2868938;83;20186;-60
2021/05/16 03:51:12;;;;;;;;;;;;;;;12.33;85.02;99038.17;2869321;82;20226;-60
2021/05/16 03:55:14;;;;;;;;;;;;;;;12.14;85.49;99045.52;2868893;82;20210;-60
2021/05/16 03:59:15;;;;;;;;;;;;;;;12.24;88.23;99049.34;2868766;82;20174;-60
2021/05/16 04:03:17;;;;;;;;;;;;;;;12.65;89.43;99058.30;2869117;82;20208;-61
2021/05/16 04:07:18;;;;;;;;;;;;;;;13.11;89.11;99044.34;2869044;82;20158;-60
2021/05/16 04:11:20;;;;;;;;;;;;;;;13.39;85.20;99047.39;2869490;83;20170;-61
2021/05/16 04:15:21;;;;;;;;;;;;;;;13.40;85.18;99055.73;2869401;83;20206;-60
2021/05/16 04:19:22;;;;;;;;;;;;;;;13.57;84.91;99053.00;2869684;83;20226;-61
2021/05/16 04:23:25;;;;;;;;;;;;;;;13.83;85.05;99054.51;2869832;83;20205;-60
2021/05/16 04:27:27;;;;;;;;;;;;;;;14.21;86.86;99055.91;2834039;83;20194;-60
2021/05/16 04:31:28;;;;;;;;;;;;;;;14.95;89.80;99039.69;2828307;84;20164;-61
2021/05/16 04:35:30;;;;;;;;;;;;;;;15.74;89.88;99036.48;2822442;84;20192;-61
2021/05/16 04:39:31;;;;;;;;;;;;;;;16.37;81.47;99036.69;2838216;83;20143;-61
2021/05/16 04:43:32;;;;;;;;;;;;;;;16.72;79.46;99031.05;2838430;83;20175;-61
2021/05/16 04:47:34;;;;;;;;;;;;;;;17.33;79.06;99030.87;2850544;83;20519;-62
2021/05/16 04:51:35;;;;;;;;;;;;;;;17.91;76.16;99041.15;2851346;83;20166;-61
2021/05/16 04:55:37;;;;;;;;;;;;;;;18.01;71.85;99031.33;2851011;83;20178;-62
2021/05/16 04:59:38;;;;;;;;;;;;;;;18.06;71.46;99030.22;2851256;83;20202;-61
2021/05/16 05:03:40;;;;;;;;;;;;;;;17.92;70.85;99029.89;2851443;83;20178;-62
2021/05/16 05:07:41;;;;;;;;;;;;;;;17.88;70.44;99030.80;2851215;83;20170;-61
2021/05/16 05:11:43;;;;;;;;;;;;;;;17.71;69.99;99018.27;2851012;83;20561;-63
2021/05/16 05:15:44;;;;;;;;;;;;;;;17.49;70.61;99018.92;2850916;83;20221;-61
2021/05/16 05:19:45;;;;;;;;;;;;;;;17.19;71.28;99020.05;2850935;83;20138;-62
2021/05/16 05:23:47;;;;;;;;;;;;;;;16.94;72.66;99015.66;2850315;82;20154;-63
2021/05/16 05:27:48;;;;;;;;;;;;;;;16.75;72.49;99013.20;2850232;83;20178;-62
2021/05/16 05:31:50;;;;;;;;;;;;;;;16.55;74.41;99018.73;2843626;83;20186;-62
2021/05/16 05:35:52;;;;;;;;;;;;;;;16.35;74.84;99033.86;2819619;83;20190;-62
2021/05/16 05:39:54;;;;;;;;;;;;;;;16.12;75.78;99039.78;2845690;83;20193;-62
2021/05/16 05:43:55;;;;;;;;;;;;;;;16.05;76.06;99046.92;2827903;83;20153;-62
2021/05/16 05:47:56;;;;;;;;;;;;;;;15.99;76.49;99053.06;2845281;83;20197;-61
2021/05/16 05:52:00;;;;;;;;;;;;;;;15.84;76.76;99052.58;2813856;84;20173;-63
2021/05/16 05:56:01;;;;;;;;;;;;;;;15.72;77.57;99055.42;2814094;84;20196;-61
2021/05/16 06:00:05;;;;;;;;;;;;;;;15.63;78.27;99059.25;2813766;84;20236;-61
2021/05/16 06:04:06;;;;;;;;;;;;;;;15.59;78.55;99070.04;2819736;84;20177;-62
2021/05/16 06:08:08;;;;;;;;;;;;;;;15.56;78.98;99071.23;2813815;84;20193;-62
2021/05/16 06:12:11;;;;;;;;;;;;;;;15.63;78.80;99075.34;2815733;83;20197;-62
2021/05/16 06:16:12;;;;;;;;;;;;;;;15.68;77.83;99076.93;2833360;82;20186;-61
2021/05/16 06:20:15;;;;;;;;;;;;;;;15.70;76.51;99082.93;2854601;82;20592;-62
2021/05/16 06:24:16;;;;;;;;;;;;;;;15.63;77.33;99086.05;2813620;84;20240;-62
2021/05/16 06:28:18;;;;;;;;;;;;;;;15.66;78.02;99087.86;2813332;84;20185;-63
2021/05/16 06:32:19;;;;;;;;;;;;;;;15.74;77.31;99090.94;2813549;84;20141;-62
2021/05/16 06:36:21;;;;;;;;;;;;;;;15.94;77.90;99089.83;2813741;84;20200;-62
2021/05/16 06:40:22;;;;;;;;;;;;;;;15.95;76.30;99092.02;2813722;84;20529;-62
2021/05/16 06:44:24;;;;;;;;;;;;;;;16.02;76.42;99106.84;2813455;84;20165;-61
2021/05/16 06:48:26;;;;;;;;;;;;;;;16.01;75.41;99111.36;2813791;84;20180;-61
2021/05/16 06:52:27;;;;;;;;;;;;;;;15.89;75.96;99106.16;2813563;84;20208;-63
2021/05/16 06:56:29;;;;;;;;;;;;;;;15.82;77.06;99105.56;2813501;84;20169;-62
2021/05/16 07:00:31;;;;;;;;;;;;;;;15.71;75.40;99112.73;2813419;84;20212;-61
2021/05/16 07:04:32;;;;;;;;;;;;;;;15.52;76.36;99118.19;2813627;84;20208;-61
2021/05/16 07:08:34;;;;;;;;;;;;;;;15.42;77.43;99121.16;2813514;84;20529;-62
2021/05/16 07:12:35;;;;;;;;;;;;;;;15.39;77.19;99119.67;2814123;84;20193;-61
2021/05/16 07:16:37;;;;;;;;;;;;;;;15.30;77.29;99119.95;2815190;83;20196;-61
2021/05/16 07:20:39;;;;;;;;;;;;;;;15.13;78.31;99126.83;2828600;82;20204;-61
2021/05/16 07:24:40;;;;;;;;;;;;;;;15.06;78.45;99127.25;2813811;84;20168;-61
2021/05/16 07:28:41;;;;;;;;;;;;;;;15.05;78.33;99138.98;2813583;84;20619;-62
2021/05/16 07:32:43;;;;;;;;;;;;;;;14.99;78.03;99137.86;2826836;83;20166;-62
2021/05/16 07:36:44;;;;;;;;;;;;;;;14.98;77.47;99134.37;2829798;83;20194;-61
2021/05/16 07:40:45;;;;;;;;;;;;;;;14.97;78.99;99137.21;2846933;82;20169;-62
2021/05/16 07:44:47;;;;;;;;;;;;;;;15.06;79.17;99136.62;2837196;83;20193;-61
2021/05/16 07:48:48;;;;;;;;;;;;;;;15.11;79.91;99130.20;2812937;84;20169;-61
2021/05/16 07:52:49;;;;;;;;;;;;;;;15.11;79.37;99123.02;2835853;83;20221;-61
2021/05/16 07:56:51;;;;;;;;;;;;;;;15.12;77.33;99129.19;2832257;83;20671;-62
2021/05/16 08:00:52;;;;;;;;;;;;;;;15.08;78.25;99126.06;2848036;83;20138;-61
2021/05/16 08:04:54;;;;;;;;;;;;;;;15.17;78.23;99121.95;2844939;82;20163;-61
2021/05/16 08:08:55;;;;;;;;;;;;;;;15.32;77.72;99123.27;2816449;83;20145;-60
2021/05/16 08:12:56;;;;;;;;;;;;;;;15.52;77.23;99123.02;2828438;83;20252;-61
2021/05/16 08:16:58;;;;;;;;;;;;;;;15.75;77.36;99126.11;2820336;83;20185;-60
2021/05/16 08:20:59;;;;;;;;;;;;;;;15.96;75.96;99125.86;2838886;83;20502;-61
2021/05/16 08:25:04;;;;;;;;;;;;;;;16.15;74.63;99125.73;2832581;83;20220;-61
2021/05/16 08:29:09;;;;;;;;;;;;;;;16.14;73.42;99133.47;2813099;83;20169;-60
2021/05/16 08:33:11;;;;;;;;;;;;;;;16.30;72.74;99132.91;2832751;83;20169;-60
2021/05/16 08:37:13;;;;;;;;;;;;;;;16.43;71.75;99133.04;2837135;83;20189;-61
2021/05/16 08:41:14;;;;;;;;;;;;;;;16.59;72.79;99138.64;2845653;83;20174;-60
2021/05/16 08:45:16;;;;;;;;;;;;;;;16.80;71.05;99147.69;2832670;83;20524;-60
2021/05/16 08:49:19;;;;;;;;;;;;;;;16.93;70.32;99144.27;2835472;82;20202;-61
2021/05/16 08:53:20;;;;;;;;;;;;;;;16.93;68.00;99146.45;2834808;83;20231;-60
2021/05/16 08:57:23;;;;;;;;;;;;;;;16.90;67.60;99149.54;2741164;84;20188;-61
2021/05/16 09:01:25;;;;;;;;;;;;;;;17.04;69.04;99149.64;2753977;85;20225;-61
2021/05/16 09:05:29;;;;;;;;;;;;;;;17.25;68.47;99148.77;2755515;85;20174;-61
2021/05/16 09:09:34;;;;;;;;;;;;;;;17.47;67.01;99151.36;2833732;83;20204;-60
2021/05/16 09:13:53;;;;;;;;;;;;;;;17.70;66.52;99157.79;2837275;83;20231;-60
2021/05/16 09:17:53;;;;;;;;;;;;;;;17.90;64.98;99157.04;2827928;82;20168;-60
2021/05/16 09:21:54;;;;;;;;;;;;;;;18.10;65.26;99156.61;2838761;83;20150;-61
2021/05/16 09:25:59;;;;;;;;;;;;;;;18.37;64.22;99155.81;2843618;83;20233;-61
2021/05/16 09:30:01;;;;;;;;;;;;;;;18.65;62.81;99158.86;2823378;83;20177;-63
2021/05/16 09:34:04;;;;;;;;;;;;;;;19.03;61.27;99153.38;2823701;84;20500;-60
2021/05/16 09:38:12;;;;;;;;;;;;;;;19.51;62.44;99163.88;2829371;83;20177;-63
2021/05/16 09:42:15;;;;;;;;;;;;;;;19.79;61.86;99164.07;2832347;83;20183;-64
2021/05/16 09:46:16;;;;;;;;;;;;;;;19.65;59.34;99165.16;2831218;83;20161;-62
2021/05/16 09:50:18;;;;;;;;;;;;;;;19.48;58.33;99172.89;2828305;83;20159;-64
2021/05/16 09:54:19;;;;;;;;;;;;;;;19.40;57.90;99173.45;2746879;85;20585;-68
2021/05/16 09:58:21;;;;;;;;;;;;;;;19.45;59.24;99174.14;2701645;87;20134;-65
2021/05/16 10:02:26;;;;;;;;;;;;;;;19.39;60.23;99173.64;2700803;88;20216;-67
2021/05/16 10:06:29;;;;;;;;;;;;;;;19.44;60.80;99168.97;2756160;85;20167;-70
2021/05/16 10:10:33;;;;;;;;;;;;;;;19.39;60.62;99166.39;2757094;85;20183;-70
2021/05/16 10:14:40;;;;;;;;;;;;;;;19.51;61.29;99166.57;2769676;84;20165;-68
2021/05/16 10:18:42;;;;;;;;;;;;;;;19.67;60.10;99161.75;2764336;84;20202;-66
2021/05/16 10:22:57;;;;;;;;;;;;;;;19.86;59.13;99159.19;2726681;85;20175;-68
2021/05/16 10:27:24;;;;;;;;;;;;;;;19.92;59.65;99151.61;2734927;86;20174;-67
2021/05/16 10:31:42;;;;;;;;;;;;;;;19.86;59.78;99153.80;2743232;86;20179;-66
2021/05/16 10:35:49;;;;;;;;;;;;;;;19.86;59.84;99156.49;2735921;86;20135;-68
2021/05/16 10:39:51;;;;;;;;;;;;;;;20.02;62.72;99141.16;2727292;85;20210;-66
2021/05/16 10:44:13;;;;;;;;;;;;;;;20.01;61.28;99140.05;2742924;85;20495;-66
2021/05/16 10:48:17;;;;;;;;;;;;;;;20.16;62.31;99149.19;2743211;85;20153;-65
2021/05/16 10:52:29;;;;;;;;;;;;;;;20.00;59.03;99143.25;2778965;85;20205;-67
2021/05/16 10:56:30;;;;;;;;;;;;;;;20.29;60.57;99139.67;2779366;85;20167;-66
2021/05/16 11:00:35;;;;;;;;;;;;;;;20.39;59.89;99142.70;2780168;85;20194;-60
2021/05/16 11:04:49;;;;;;;;;;;;;;;20.40;59.31;99133.55;2780877;85;20369;-61
2021/05/16 11:08:54;;;;;;;;;;;;;;;20.35;59.60;99128.52;2780618;85;20187;-61
2021/05/16 11:13:13;;;;;;;;;;;;;;;20.41;59.82;99120.34;2781213;85;20261;-61
2021/05/16 11:17:17;;;;;;;;;;;;;;;20.59;58.17;99107.95;2779529;84;20618;-60
2021/05/16 11:21:17;;;;;;;;;;;;;;;20.77;59.46;99111.25;2779522;85;20649;-61
2021/05/16 11:25:26;;;;;;;;;;;;;;;20.80;57.79;99099.18;2777745;85;20163;-61
2021/05/16 11:29:28;;;;;;;;;;;;;;;20.88;58.41;99101.61;2779015;84;20147;-59
2021/05/16 11:33:35;;;;;;;;;;;;;;;21.04;59.28;99100.74;2779122;85;20159;-60
2021/05/16 11:37:37;;;;;;;;;;;;;;;21.12;59.79;99097.19;2771675;85;20189;-60
2021/05/16 11:41:41;;;;;;;;;;;;;;;21.00;57.01;99099.51;2731883;86;20172;-61
2021/05/16 11:45:43;;;;;;;;;;;;;;;20.82;57.33;99098.43;2731638;86;20462;-61
2021/05/16 11:49:50;;;;;;;;;;;;;;;20.72;58.50;99098.09;2784114;83;20175;-61
2021/05/16 11:54:01;;;;;;;;;;;;;;;20.79;59.50;99089.39;2796297;85;20186;-60
2021/05/16 11:58:04;;;;;;;;;;;;;;;20.73;59.41;99088.94;2805935;85;20154;-62
2021/05/16 12:02:05;;;;;;;;;;;;;;;20.64;59.04;99089.23;2853512;83;20168;-60
2021/05/16 12:06:07;;;;;;;;;;;;;;;20.36;58.24;99097.77;2796850;85;20202;-59
2021/05/16 12:10:13;;;;;;;;;;;;;;;20.07;61.08;99090.08;2728495;84;20190;-61
2021/05/16 12:14:17;;;;;;;;;;;;;;;20.12;59.76;99088.05;2737858;87;20161;-61
2021/05/16 12:18:20;;;;;;;;;;;;;;;20.14;59.70;99085.14;2739641;87;20172;-63
2021/05/16 12:22:23;;;;;;;;;;;;;;;20.07;60.28;99090.58;2739716;85;20149;-65
2021/05/16 12:26:26;;;;;;;;;;;;;;;20.09;63.07;99090.68;2739455;85;20165;-60
2021/05/16 12:30:28;;;;;;;;;;;;;;;19.95;61.72;99088.59;2739736;87;20157;-60
2021/05/16 12:34:31;;;;;;;;;;;;;;;19.84;63.69;99091.40;2740078;87;20145;-59
2021/05/16 12:38:43;;;;;;;;;;;;;;;19.86;63.71;99079.59;2739780;85;20149;-61
2021/05/16 12:42:44;;;;;;;;;;;;;;;20.19;65.32;99078.05;2739156;85;20284;-60
2021/05/16 12:46:48;;;;;;;;;;;;;;;20.65;64.99;99072.48;2738756;85;20566;-60
2021/05/16 12:50:59;;;;;;;;;;;;;;;20.95;60.80;99067.23;2732013;86;20165;-61
2021/05/16 12:54:58;;;;;;;;;;;;;;;21.33;62.10;99061.83;2732519;85;20402;-61
2021/05/16 12:59:06;;;;;;;;;;;;;;;21.51;57.37;99071.78;2732575;86;20209;-60
2021/05/16 13:03:07;;;;;;;;;;;;;;;21.12;57.16;99066.64;2731926;86;20181;-61
2021/05/16 13:07:10;;;;;;;;;;;;;;;20.47;56.72;99077.33;2732000;85;20193;-61
2021/05/16 13:11:12;;;;;;;;;;;;;;;20.33;59.34;99078.77;2731721;87;20158;-60
2021/05/16 13:15:13;;;;;;;;;;;;;;;20.44;57.48;99077.23;2731780;86;20161;-60
2021/05/16 13:19:14;;;;;;;;;;;;;;;20.56;57.11;99078.69;2731692;87;20189;-61
2021/05/16 13:23:27;;;;;;;;;;;;;;;20.48;56.61;99077.09;2732028;86;20173;-61
2021/05/16 13:27:28;;;;;;;;;;;;;;;20.53;57.68;99077.25;2731479;86;20181;-61
2021/05/16 13:31:30;;;;;;;;;;;;;;;20.64;57.79;99070.32;2731626;87;20494;-60
2021/05/16 13:35:31;;;;;;;;;;;;;;;20.60;55.41;99063.69;2731807;87;20197;-61
2021/05/16 13:39:32;;;;;;;;;;;;;;;20.57;56.69;99049.27;2732191;86;20173;-60
2021/05/16 13:43:35;;;;;;;;;;;;;;;20.68;58.52;99047.72;2732006;86;20165;-59
2021/05/16 13:47:37;;;;;;;;;;;;;;;20.95;59.34;99038.84;2733812;87;20501;-61
2021/05/16 13:51:40;;;;;;;;;;;;;;;21.24;56.16;99035.10;2739202;85;20180;-60
2021/05/16 13:55:42;;;;;;;;;;;;;;;21.41;54.56;99027.70;2739156;85;20157;-61
2021/05/16 13:59:43;;;;;;;;;;;;;;;21.54;54.88;99024.82;2739568;85;20169;-61
2021/05/16 14:03:44;;;;;;;;;;;;;;;21.72;54.50;99025.05;2739203;85;20173;-61
2021/05/16 14:07:46;;;;;;;;;;;;;;;21.80;54.97;99013.34;2739339;85;20169;-61
2021/05/16 14:11:47;;;;;;;;;;;;;;;21.83;53.81;99023.73;2739328;85;20237;-61
2021/05/16 14:15:49;;;;;;;;;;;;;;;21.80;53.44;99010.64;2739096;87;20280;-62
2021/05/16 14:19:50;;;;;;;;;;;;;;;21.77;54.05;99011.11;2739613;85;20239;-63
2021/05/16 14:23:51;;;;;;;;;;;;;;;21.83;55.34;99012.06;2739432;85;20193;-62
2021/05/16 14:27:53;;;;;;;;;;;;;;;21.99;55.58;99012.46;2739605;87;20172;-60
2021/05/16 14:31:54;;;;;;;;;;;;;;;22.10;53.93;99011.64;2739418;87;20161;-61
2021/05/16 14:35:55;;;;;;;;;;;;;;;22.13;51.89;99007.66;2739365;85;20201;-61
2021/05/16 14:39:58;;;;;;;;;;;;;;;22.18;54.01;99003.71;2762445;85;20237;-62
2021/05/16 14:44:00;;;;;;;;;;;;;;;22.25;55.81;99003.89;2852298;83;20181;-62
2021/05/16 14:48:01;;;;;;;;;;;;;;;22.21;51.34;98997.30;2799743;84;20213;-61
2021/05/16 14:52:03;;;;;;;;;;;;;;;;;;2856493;83;20154;-60
2021/05/16 14:56:05;;;;;;;;;;;;;;;22.09;51.52;98991.88;2855768;83;20138;-61
2021/05/16 15:00:08;;;;;;;;;;;;;;;21.96;51.68;98983.97;2856222;83;20263;-60
2021/05/16 15:04:09;;;;;;;;;;;;;;;21.88;53.06;98974.84;2803330;85;20158;-62
2021/05/16 15:08:11;;;;;;;;;;;;;;;21.77;51.73;98973.76;2851209;82;20167;-61
2021/05/16 15:12:12;;;;;;;;;;;;;;;21.67;51.17;98966.20;2840090;84;20220;-60
2021/05/16 15:16:14;;;;;;;;;;;;;;;21.22;50.94;98958.80;2839411;84;20204;-61
2021/05/16 15:20:15;;;;;;;;;;;;;;;20.98;53.19;98962.71;2839637;84;20211;-60
2021/05/16 15:24:16;;;;;;;;;;;;;;;20.92;54.88;98964.14;2839595;84;20152;-61
2021/05/16 15:28:18;;;;;;;;;;;;;;;20.98;55.88;98967.31;2839545;84;20175;-61
2021/05/16 15:32:19;;;;;;;;;;;;;;;20.97;57.68;98963.77;2839517;84;20180;-60
2021/05/16 15:36:21;;;;;;;;;;;;;;;20.89;57.07;98957.33;2839858;84;20156;-61
2021/05/16 15:40:23;;;;;;;;;;;;;;;20.69;55.03;98952.95;2840061;81;20302;-59
2021/05/16 15:44:25;;;;;;;;;;;;;;;20.54;53.09;98947.08;2839550;84;20196;-62
2021/05/16 15:48:29;;;;;;;;;;;;;;;20.67;55.72;98948.30;2754908;85;20186;-61
2021/05/16 15:52:31;;;;;;;;;;;;;;;20.86;53.19;98941.57;2695668;86;20210;-62
2021/05/16 15:56:33;;;;;;;;;;;;;;;21.03;52.33;98932.81;2742412;87;20177;-62
2021/05/16 16:00:35;;;;;;;;;;;;;;;21.24;54.82;98931.51;2742392;87;20177;-60
2021/05/16 16:04:36;;;;;;;;;;;;;;;21.37;52.29;98923.22;2742681;85;20177;-61
2021/05/16 16:08:38;;;;;;;;;;;;;;;21.39;52.04;98921.62;2761250;85;20190;-61
2021/05/16 16:12:39;;;;;;;;;;;;;;;21.37;53.52;98916.97;2788584;84;20155;-60
2021/05/16 16:16:42;;;;;;;;;;;;;;;21.34;53.03;98920.14;2788849;84;20170;-60
2021/05/16 16:20:43;;;;;;;;;;;;;;;21.30;51.84;98918.95;2788876;85;20182;-61
2021/05/16 16:24:44;;;;;;;;;;;;;;;21.09;52.66;98912.45;2787888;84;20198;-60
2021/05/16 16:28:46;;;;;;;;;;;;;;;20.98;52.23;98911.90;2788684;84;20146;-60
2021/05/16 16:32:48;;;;;;;;;;;;;;;20.93;52.41;98909.03;2788716;84;20182;-62
2021/05/16 16:36:50;;;;;;;;;;;;;;;20.78;53.08;98905.34;2788446;85;20175;-61
2021/05/16 16:40:52;;;;;;;;;;;;;;;20.76;54.46;98899.35;2744563;84;20498;-60
2021/05/16 16:44:53;;;;;;;;;;;;;;;20.81;55.53;98897.66;2727772;86;20197;-60
2021/05/16 16:48:55;;;;;;;;;;;;;;;20.88;54.30;98892.17;2728829;86;20201;-62
2021/05/16 16:52:57;;;;;;;;;;;;;;;20.80;53.11;98887.06;2731189;87;20201;-62
2021/05/16 16:56:59;;;;;;;;;;;;;;;20.80;53.44;98889.25;2730899;87;20176;-59
2021/05/16 17:01:00;;;;;;;;;;;;;;;20.80;53.06;98877.09;2730942;86;20517;-60
2021/05/16 17:05:02;;;;;;;;;;;;;;;20.67;54.15;98879.41;2730845;86;20189;-61
2021/05/16 17:09:05;;;;;;;;;;;;;;;20.55;54.84;98875.30;2730989;86;20161;-60
2021/05/16 17:13:07;;;;;;;;;;;;;;;20.31;55.74;98878.36;2730787;87;20201;-61
2021/05/16 17:17:08;;;;;;;;;;;;;;;20.05;56.50;98878.95;2748901;84;20163;-60
2021/05/16 17:21:10;;;;;;;;;;;;;;;19.85;59.08;98887.18;2756872;85;20181;-60
2021/05/16 17:25:12;;;;;;;;;;;;;;;19.62;60.44;98884.58;2756883;86;20182;-60
2021/05/16 17:29:14;;;;;;;;;;;;;;;19.49;60.59;98886.85;2756963;86;20162;-61
2021/05/16 17:33:15;;;;;;;;;;;;;;;19.40;61.93;98888.14;2757068;86;20503;-62
2021/05/16 17:37:18;;;;;;;;;;;;;;;19.26;61.30;98890.95;2754838;85;20186;-60
2021/05/16 17:41:19;;;;;;;;;;;;;;;19.04;62.21;98894.48;2730319;87;20142;-61
2021/05/16 17:45:21;;;;;;;;;;;;;;;18.94;63.17;98898.96;2730016;87;20213;-59
2021/05/16 17:49:23;;;;;;;;;;;;;;;18.91;63.61;98906.13;2728519;87;20197;-60
2021/05/16 17:53:24;;;;;;;;;;;;;;;18.92;62.93;98910.48;2726627;87;20194;-61
2021/05/16 17:57:26;;;;;;;;;;;;;;;18.96;63.84;98911.70;2727090;86;20142;-60
2021/05/16 18:01:27;;;;;;;;;;;;;;;18.93;63.53;98910.78;2726865;86;20755;-61
2021/05/16 18:05:29;;;;;;;;;;;;;;;18.92;63.83;98908.29;2727285;86;20149;-62
2021/05/16 18:09:31;;;;;;;;;;;;;;;18.88;64.40;98912.45;2727037;85;20477;-62
2021/05/16 18:13:33;;;;;;;;;;;;;;;18.67;64.84;98911.72;2726973;86;20185;-61
2021/05/16 18:17:35;;;;;;;;;;;;;;;18.39;66.03;98923.61;2727024;86;20186;-60
2021/05/16 18:21:37;;;;;;;;;;;;;;;18.11;65.11;98926.86;2726760;87;20157;-61
2021/05/16 18:25:38;;;;;;;;;;;;;;;17.89;62.48;98936.16;2726547;87;20150;-60
2021/05/16 18:29:39;;;;;;;;;;;;;;;17.74;61.88;98943.90;2726342;87;20213;-61
2021/05/16 18:33:41;;;;;;;;;;;;;;;17.64;62.13;98955.05;2726622;85;20177;-60
2021/05/16 18:37:44;;;;;;;;;;;;;;;17.51;62.17;98944.27;2725798;86;20177;-61
2021/05/16 18:41:46;;;;;;;;;;;;;;;17.34;62.28;98946.52;2729322;86;20185;-60
2021/05/16 18:45:48;;;;;;;;;;;;;;;17.21;62.95;98952.16;2726475;87;20166;-64
2021/05/16 18:49:49;;;;;;;;;;;;;;;17.10;63.59;98963.51;2725846;84;20181;-65
2021/05/16 18:53:51;;;;;;;;;;;;;;;16.98;63.52;98960.52;2732995;86;30142;-63
2021/05/16 18:57:53;;;;;;;;;;;;;;;16.88;63.82;98961.41;2768576;86;20191;-63
2021/05/16 19:01:54;;;;;;;;;;;;;;;16.79;64.32;98957.53;2768364;85;20180;-64
2021/05/16 19:05:58;;;;;;;;;;;;;;;16.73;64.82;98954.84;2768488;85;20174;-63
2021/05/16 19:09:59;;;;;;;;;;;;;;;16.68;64.55;98962.95;2768127;85;20187;-65
2021/05/16 19:14:01;;;;;;;;;;;;;;;16.60;65.60;98955.58;2768144;85;20160;-64
2021/05/16 19:18:02;;;;;;;;;;;;;;;16.53;65.12;98958.24;2768403;85;20147;-64
2021/05/16 19:22:04;;;;;;;;;;;;;;;16.42;65.44;98961.78;2768415;85;20183;-64
2021/05/16 19:26:07;;;;;;;;;;;;;;;16.33;66.12;98959.44;2768214;86;20155;-63
2021/05/16 19:30:11;;;;;;;;;;;;;;;16.14;66.38;98968.48;2767748;85;20191;-64
2021/05/16 19:34:13;;;;;;;;;;;;;;;16.01;66.40;98978.61;2767877;86;20171;-63
2021/05/16 19:38:17;;;;;;;;;;;;;;;15.90;67.34;98972.41;2767929;86;20171;-63
2021/05/16 19:42:19;;;;;;;;;;;;;;;15.69;68.10;98976.73;2767792;86;20226;-64
2021/05/16 19:46:20;;;;;;;;;;;;;;;15.46;69.33;98983.10;2767558;85;20163;-63
2021/05/16 19:50:22;;;;;;;;;;;;;;;15.18;70.59;98985.17;2767693;86;20159;-63
2021/05/16 19:54:23;;;;;;;;;;;;;;;14.90;71.86;98985.84;2767306;86;20212;-63
2021/05/16 19:58:26;;;;;;;;;;;;;;;14.68;72.67;98987.06;2767410;85;20190;-63
2021/05/16 20:02:27;;;;;;;;;;;;;;;14.56;73.64;98985.36;2767163;86;20167;-63
2021/05/16 20:06:29;;;;;;;;;;;;;;;14.48;74.49;98991.30;2767446;85;20187;-64
2021/05/16 20:10:30;;;;;;;;;;;;;;;14.39;74.96;98994.07;2767181;86;20203;-64
2021/05/16 20:14:32;;;;;;;;;;;;;;;14.23;75.39;98991.55;2766978;85;20175;-62
2021/05/16 20:18:33;;;;;;;;;;;;;;;14.06;76.32;98986.34;2766797;86;20167;-64
2021/05/16 20:22:35;;;;;;;;;;;;;;;13.88;76.95;98984.00;2766543;85;20578;-62
2021/05/16 20:26:37;;;;;;;;;;;;;;;13.77;77.71;98983.91;2765633;86;20194;-63
2021/05/16 20:30:38;;;;;;;;;;;;;;;13.76;77.75;98982.25;2766421;85;20132;-60
2021/05/16 20:34:40;;;;;;;;;;;;;;;13.85;77.59;98980.33;2765968;85;20175;-63
2021/05/16 20:38:42;;;;;;;;;;;;;;;13.92;77.12;98969.75;2778227;85;20483;-62
2021/05/16 20:42:45;;;;;;;;;;;;;;;13.96;76.94;98972.41;2793100;85;20214;-62
2021/05/16 20:46:47;;;;;;;;;;;;;;;13.93;76.60;98970.92;2792859;85;20166;-64
2021/05/16 20:50:48;;;;;;;;;;;;;;;13.85;76.64;98963.80;2779211;85;20280;-64
2021/05/16 20:54:50;;;;;;;;;;;;;;;13.74;76.87;98965.54;2747191;86;20170;-63
2021/05/16 20:58:52;;;;;;;;;;;;;;;13.58;77.18;98969.70;2766305;85;20192;-65
2021/05/16 21:02:56;;;;;;;;;;;;;;;13.43;78.05;98966.44;2766278;85;20208;-64